Gibson Creek, Washington
Current Conditions -  °F | °C
As of 12:15 AM on Wednesday 22 Oct 2014 (Local Time) from KCLS Reporting Station
Drizzle Drizzle  
Wind Chill: 55°   Ceiling: 3600
Heat Index: 55°   Visibility: 8mi
Dew Point: 52°   Wind: 12mph
Humidity: 88%   Direction: 170°S
Pressure: 29.75"   Gusts: NA
Location:  46.8553°N, 123.315°W
Report Text: KCLS 220715Z AUTO 17010KT 8SM -DZ FEW029 BKN036 OVC060 13/11 A2975 RMK AO2
Loading
Personal Weather Stations






























Interactive Weather Map
Tropical Storm Tracking
New forecast layout! Learn more

10-Day Weather Forecast

Advertisements
Track Severe Weather on mobile